KDPA

Dupage Airport

Chicago/West Chicago, Illinois, USA
METAR KDPA 240452Z 01003KT 10SM CLR 01/M01 A3036 RMK AO2 SLP287 T00061011
Observed Flight Rules
Oct-24 @ 04:52 UTC (9 minutes ago) Visual Flight Rules
Wind Visibility Clouds
10° at 3 knots 10 miles
  • Clear skies
Temperatures Readings
Current 1°C / 34°F
Dewpoint -1°C / 30°F
Humidity 87%
Altimeter 30.36" Hg
Pressure 1028.7 hPa
Elevation 231
METAR KDPA 240452Z 01003KT 10SM CLR 01/M01 A3036 RMK AO2 SLP287 T00061011
Observed Flight Rules
Oct-24 @ 04:52 UTC
(9 minutes ago)
VFR
Wind Visibility
10° at 3 knots 10 miles
Clouds
  • Clear skies
Temperature Dewpoint
1°C / 34°F -1°C / 30°F
Humidity Altimeter Pressure
87% 30.36" Hg 1028.7 hPa